sensor_id;sensor_type;location;lat;lon;timestamp;P1;durP1;ratioP1;P2;durP2;ratioP2
4692;SDS011;11710;48.024;16.296;2023-02-23T06:59:46;41.55;;;26.48;;
4692;SDS011;11710;48.024;16.296;2023-02-23T07:02:13;44.90;;;24.88;;
4692;SDS011;11710;48.024;16.296;2023-02-23T07:04:40;38.95;;;23.75;;
4692;SDS011;11710;48.024;16.296;2023-02-23T07:07:08;39.03;;;23.80;;
4692;SDS011;11710;48.024;16.296;2023-02-23T07:09:36;43.50;;;25.33;;
4692;SDS011;11710;48.024;16.296;2023-02-23T07:12:07;38.65;;;22.52;;
4692;SDS011;11710;48.024;16.296;2023-02-23T07:14:34;38.10;;;23.75;;
4692;SDS011;11710;48.024;16.296;2023-02-23T07:17:04;32.50;;;21.58;;
4692;SDS011;11710;48.024;16.296;2023-02-23T07:19:31;33.42;;;20.52;;
4692;SDS011;11710;48.024;16.296;2023-02-23T07:21:59;30.38;;;20.30;;
4692;SDS011;11710;48.024;16.296;2023-02-23T07:24:27;34.42;;;21.20;;
4692;SDS011;11710;48.024;16.296;2023-02-23T07:26:54;28.70;;;20.58;;
4692;SDS011;11710;48.024;16.296;2023-02-23T07:29:22;32.95;;;20.77;;
4692;SDS011;11710;48.024;16.296;2023-02-23T07:31:49;33.45;;;21.63;;
4692;SDS011;11710;48.024;16.296;2023-02-23T07:34:18;32.78;;;20.48;;
4692;SDS011;11710;48.024;16.296;2023-02-23T07:36:45;33.25;;;21.23;;
4692;SDS011;11710;48.024;16.296;2023-02-23T07:39:12;29.60;;;20.42;;
4692;SDS011;11710;48.024;16.296;2023-02-23T07:41:40;30.58;;;20.45;;
4692;SDS011;11710;48.024;16.296;2023-02-23T07:44:07;29.95;;;20.00;;
4692;SDS011;11710;48.024;16.296;2023-02-23T07:46:35;33.10;;;21.85;;
4692;SDS011;11710;48.024;16.296;2023-02-23T07:49:02;33.10;;;21.10;;
4692;SDS011;11710;48.024;16.296;2023-02-23T07:51:31;35.65;;;23.48;;
4692;SDS011;11710;48.024;16.296;2023-02-23T07:54:01;36.08;;;24.17;;
4692;SDS011;11710;48.024;16.296;2023-02-23T07:56:29;46.40;;;25.75;;
4692;SDS011;11710;48.024;16.296;2023-02-23T07:58:56;39.58;;;24.92;;
4692;SDS011;11710;48.024;16.296;2023-02-23T08:01:24;49.65;;;30.40;;
4692;SDS011;11710;48.024;16.296;2023-02-23T08:03:51;47.97;;;29.17;;
4692;SDS011;11710;48.024;16.296;2023-02-23T08:06:19;41.80;;;26.58;;
4692;SDS011;11710;48.024;16.296;2023-02-23T08:08:47;47.03;;;28.75;;
4692;SDS011;11710;48.024;16.296;2023-02-23T08:11:15;46.22;;;30.88;;
4692;SDS011;11710;48.024;16.296;2023-02-23T08:13:43;46.10;;;28.92;;
4692;SDS011;11710;48.024;16.296;2023-02-23T08:16:11;46.58;;;30.08;;
4692;SDS011;11710;48.024;16.296;2023-02-23T08:18:40;41.03;;;27.35;;
4692;SDS011;11710;48.024;16.296;2023-02-23T08:21:09;40.65;;;25.40;;
4692;SDS011;11710;48.024;16.296;2023-02-23T08:23:37;38.17;;;24.33;;
4692;SDS011;11710;48.024;16.296;2023-02-23T08:26:05;36.28;;;23.67;;
4692;SDS011;11710;48.024;16.296;2023-02-23T08:28:33;38.45;;;24.20;;
4692;SDS011;11710;48.024;16.296;2023-02-23T08:31:00;38.78;;;23.90;;
4692;SDS011;11710;48.024;16.296;2023-02-23T08:33:28;37.40;;;24.70;;
4692;SDS011;11710;48.024;16.296;2023-02-23T08:35:57;34.20;;;23.77;;
4692;SDS011;11710;48.024;16.296;2023-02-23T08:38:27;37.38;;;23.70;;
4692;SDS011;11710;48.024;16.296;2023-02-23T08:40:54;36.72;;;23.38;;
4692;SDS011;11710;48.024;16.296;2023-02-23T08:43:23;38.83;;;25.02;;
4692;SDS011;11710;48.024;16.296;2023-02-23T08:45:50;38.20;;;24.80;;
4692;SDS011;11710;48.024;16.296;2023-02-23T08:48:18;35.13;;;23.95;;
4692;SDS011;11710;48.024;16.296;2023-02-23T08:50:46;32.77;;;23.10;;
4692;SDS011;11710;48.024;16.296;2023-02-23T08:53:14;33.30;;;22.57;;
4692;SDS011;11710;48.024;16.296;2023-02-23T08:55:41;31.50;;;22.63;;
4692;SDS011;11710;48.024;16.296;2023-02-23T08:58:09;32.60;;;22.87;;
4692;SDS011;11710;48.024;16.296;2023-02-23T09:00:37;31.77;;;22.20;;
4692;SDS011;11710;48.024;16.296;2023-02-23T09:03:08;32.63;;;24.20;;
4692;SDS011;11710;48.024;16.296;2023-02-23T09:05:35;30.90;;;21.83;;
4692;SDS011;11710;48.024;16.296;2023-02-23T09:08:04;29.13;;;21.33;;
4692;SDS011;11710;48.024;16.296;2023-02-23T09:10:31;27.27;;;21.03;;
4692;SDS011;11710;48.024;16.296;2023-02-23T09:12:58;32.73;;;21.80;;
4692;SDS011;11710;48.024;16.296;2023-02-23T09:15:27;27.63;;;22.80;;
4692;SDS011;11710;48.024;16.296;2023-02-23T09:17:56;27.30;;;21.47;;
4692;SDS011;11710;48.024;16.296;2023-02-23T09:20:25;26.60;;;20.87;;
4692;SDS011;11710;48.024;16.296;2023-02-23T09:22:53;27.43;;;21.07;;
4692;SDS011;11710;48.024;16.296;2023-02-23T09:25:21;29.13;;;21.50;;
4692;SDS011;11710;48.024;16.296;2023-02-23T09:27:49;25.97;;;20.80;;
4692;SDS011;11710;48.024;16.296;2023-02-23T09:30:17;24.40;;;19.27;;
4692;SDS011;11710;48.024;16.296;2023-02-23T09:32:45;26.60;;;21.80;;
4692;SDS011;11710;48.024;16.296;2023-02-23T09:35:14;26.60;;;20.47;;
4692;SDS011;11710;48.024;16.296;2023-02-23T09:37:43;26.80;;;20.90;;
4692;SDS011;11710;48.024;16.296;2023-02-23T09:40:13;27.63;;;21.50;;
4692;SDS011;11710;48.024;16.296;2023-02-23T09:42:41;23.50;;;20.63;;
4692;SDS011;11710;48.024;16.296;2023-02-23T09:45:16;22.43;;;19.30;;
4692;SDS011;11710;48.024;16.296;2023-02-23T09:47:48;24.27;;;21.20;;
4692;SDS011;11710;48.024;16.296;2023-02-23T09:50:21;26.37;;;23.03;;
4692;SDS011;11710;48.024;16.296;2023-02-23T09:52:50;24.30;;;20.47;;
4692;SDS011;11710;48.024;16.296;2023-02-23T09:55:19;25.57;;;19.70;;
4692;SDS011;11710;48.024;16.296;2023-02-23T09:57:47;28.50;;;21.53;;
4692;SDS011;11710;48.024;16.296;2023-02-23T10:00:18;27.73;;;21.50;;
4692;SDS011;11710;48.024;16.296;2023-02-23T10:03:06;25.23;;;21.00;;
4692;SDS011;11710;48.024;16.296;2023-02-23T10:05:38;26.90;;;21.60;;
4692;SDS011;11710;48.024;16.296;2023-02-23T10:08:12;27.23;;;21.60;;
4692;SDS011;11710;48.024;16.296;2023-02-23T10:10:44;23.03;;;19.90;;
4692;SDS011;11710;48.024;16.296;2023-02-23T10:13:15;27.20;;;21.37;;
4692;SDS011;11710;48.024;16.296;2023-02-23T10:15:47;27.87;;;22.60;;
4692;SDS011;11710;48.024;16.296;2023-02-23T10:18:20;26.77;;;21.73;;
4692;SDS011;11710;48.024;16.296;2023-02-23T10:20:55;26.03;;;21.90;;
4692;SDS011;11710;48.024;16.296;2023-02-23T10:23:26;27.70;;;22.63;;
4692;SDS011;11710;48.024;16.296;2023-02-23T10:25:56;24.87;;;21.47;;
4692;SDS011;11710;48.024;16.296;2023-02-23T10:28:24;28.13;;;21.43;;
4692;SDS011;11710;48.024;16.296;2023-02-23T10:30:53;26.73;;;21.70;;
4692;SDS011;11710;48.024;16.296;2023-02-23T10:33:22;27.43;;;23.03;;
4692;SDS011;11710;48.024;16.296;2023-02-23T10:35:51;27.30;;;22.30;;
4692;SDS011;11710;48.024;16.296;2023-02-23T10:38:22;27.27;;;23.30;;
4692;SDS011;11710;48.024;16.296;2023-02-23T10:40:54;24.87;;;21.70;;
4692;SDS011;11710;48.024;16.296;2023-02-23T10:43:22;27.57;;;22.57;;
4692;SDS011;11710;48.024;16.296;2023-02-23T10:45:50;26.90;;;22.80;;
4692;SDS011;11710;48.024;16.296;2023-02-23T10:48:19;26.17;;;22.03;;
4692;SDS011;11710;48.024;16.296;2023-02-23T10:50:48;28.43;;;22.90;;
4692;SDS011;11710;48.024;16.296;2023-02-23T10:53:17;26.17;;;21.23;;
4692;SDS011;11710;48.024;16.296;2023-02-23T10:55:46;26.33;;;22.27;;
4692;SDS011;11710;48.024;16.296;2023-02-23T10:58:26;28.10;;;24.00;;
4692;SDS011;11710;48.024;16.296;2023-02-23T11:00:54;32.70;;;25.67;;
4692;SDS011;11710;48.024;16.296;2023-02-23T11:03:23;29.70;;;23.90;;
4692;SDS011;11710;48.024;16.296;2023-02-23T11:05:52;31.00;;;23.77;;
4692;SDS011;11710;48.024;16.296;2023-02-23T11:08:21;34.13;;;24.93;;
4692;SDS011;11710;48.024;16.296;2023-02-23T11:10:58;33.97;;;24.40;;
4692;SDS011;11710;48.024;16.296;2023-02-23T11:13:26;36.97;;;24.00;;
4692;SDS011;11710;48.024;16.296;2023-02-23T11:15:57;34.30;;;24.97;;
4692;SDS011;11710;48.024;16.296;2023-02-23T11:18:26;35.70;;;25.67;;
4692;SDS011;11710;48.024;16.296;2023-02-23T11:20:54;36.73;;;26.63;;
4692;SDS011;11710;48.024;16.296;2023-02-23T11:23:22;37.23;;;25.60;;
4692;SDS011;11710;48.024;16.296;2023-02-23T11:25:53;38.55;;;26.95;;
4692;SDS011;11710;48.024;16.296;2023-02-23T11:28:26;38.40;;;24.93;;
4692;SDS011;11710;48.024;16.296;2023-02-23T11:30:55;37.33;;;24.60;;
4692;SDS011;11710;48.024;16.296;2023-02-23T11:33:25;34.43;;;25.33;;
4692;SDS011;11710;48.024;16.296;2023-02-23T11:35:59;37.73;;;25.90;;
4692;SDS011;11710;48.024;16.296;2023-02-23T11:38:27;35.40;;;25.02;;
4692;SDS011;11710;48.024;16.296;2023-02-23T11:40:57;33.57;;;24.37;;
4692;SDS011;11710;48.024;16.296;2023-02-23T11:43:26;34.63;;;24.65;;
4692;SDS011;11710;48.024;16.296;2023-02-23T11:45:54;38.70;;;25.75;;
4692;SDS011;11710;48.024;16.296;2023-02-23T11:48:24;36.83;;;26.27;;
4692;SDS011;11710;48.024;16.296;2023-02-23T11:50:53;38.53;;;26.33;;
4692;SDS011;11710;48.024;16.296;2023-02-23T11:53:23;39.10;;;25.30;;
4692;SDS011;11710;48.024;16.296;2023-02-23T11:55:53;35.78;;;24.58;;
4692;SDS011;11710;48.024;16.296;2023-02-23T11:58:22;38.27;;;24.90;;
4692;SDS011;11710;48.024;16.296;2023-02-23T12:00:55;38.93;;;25.57;;
4692;SDS011;11710;48.024;16.296;2023-02-23T12:03:23;36.63;;;25.17;;
4692;SDS011;11710;48.024;16.296;2023-02-23T12:05:52;37.50;;;26.58;;
4692;SDS011;11710;48.024;16.296;2023-02-23T12:08:24;39.00;;;25.10;;
4692;SDS011;11710;48.024;16.296;2023-02-23T12:10:56;38.70;;;25.63;;
4692;SDS011;11710;48.024;16.296;2023-02-23T12:13:25;35.40;;;25.70;;
4692;SDS011;11710;48.024;16.296;2023-02-23T12:15:56;33.80;;;25.00;;
4692;SDS011;11710;48.024;16.296;2023-02-23T12:18:29;36.70;;;25.40;;
4692;SDS011;11710;48.024;16.296;2023-02-23T12:20:59;34.43;;;25.47;;
4692;SDS011;11710;48.024;16.296;2023-02-23T12:23:31;37.30;;;25.60;;
4692;SDS011;11710;48.024;16.296;2023-02-23T12:26:03;36.17;;;26.00;;
4692;SDS011;11710;48.024;16.296;2023-02-23T12:28:32;31.80;;;24.37;;
4692;SDS011;11710;48.024;16.296;2023-02-23T12:31:03;34.63;;;24.37;;
4692;SDS011;11710;48.024;16.296;2023-02-23T12:33:33;34.50;;;25.07;;
4692;SDS011;11710;48.024;16.296;2023-02-23T12:36:02;33.30;;;24.50;;
4692;SDS011;11710;48.024;16.296;2023-02-23T12:38:32;33.57;;;24.63;;
4692;SDS011;11710;48.024;16.296;2023-02-23T12:41:06;36.63;;;25.03;;
4692;SDS011;11710;48.024;16.296;2023-02-23T12:43:37;37.73;;;25.90;;
4692;SDS011;11710;48.024;16.296;2023-02-23T12:46:09;36.57;;;24.97;;
4692;SDS011;11710;48.024;16.296;2023-02-23T12:48:42;33.63;;;25.10;;
4692;SDS011;11710;48.024;16.296;2023-02-23T12:51:13;33.00;;;23.73;;
4692;SDS011;11710;48.024;16.296;2023-02-23T12:53:43;35.77;;;24.50;;
4692;SDS011;11710;48.024;16.296;2023-02-23T12:56:15;34.87;;;25.17;;
4692;SDS011;11710;48.024;16.296;2023-02-23T12:58:47;34.23;;;24.00;;
4692;SDS011;11710;48.024;16.296;2023-02-23T13:01:19;34.33;;;23.87;;
4692;SDS011;11710;48.024;16.296;2023-02-23T13:06:43;35.03;;;23.97;;
4692;SDS011;11710;48.024;16.296;2023-02-23T13:09:17;33.30;;;22.60;;
4692;SDS011;11710;48.024;16.296;2023-02-23T13:12:03;34.07;;;23.80;;
4692;SDS011;11710;48.024;16.296;2023-02-23T13:14:35;33.80;;;23.45;;
4692;SDS011;11710;48.024;16.296;2023-02-23T13:17:11;38.67;;;23.40;;
4692;SDS011;11710;48.024;16.296;2023-02-23T13:19:40;32.10;;;22.93;;
4692;SDS011;11710;48.024;16.296;2023-02-23T13:22:15;33.45;;;23.20;;
4692;SDS011;11710;48.024;16.296;2023-02-23T13:24:47;35.30;;;23.80;;
4692;SDS011;11710;48.024;16.296;2023-02-23T13:27:16;30.70;;;22.57;;
4692;SDS011;11710;48.024;16.296;2023-02-23T13:29:46;38.10;;;23.63;;
4692;SDS011;11710;48.024;16.296;2023-02-23T13:32:16;35.53;;;23.63;;
4692;SDS011;11710;48.024;16.296;2023-02-23T13:34:47;34.47;;;23.23;;
4692;SDS011;11710;48.024;16.296;2023-02-23T13:37:17;35.23;;;23.87;;
4692;SDS011;11710;48.024;16.296;2023-02-23T13:39:47;35.63;;;24.50;;
4692;SDS011;11710;48.024;16.296;2023-02-23T13:45:06;31.20;;;22.67;;
4692;SDS011;11710;48.024;16.296;2023-02-23T13:47:41;34.10;;;24.07;;
4692;SDS011;11710;48.024;16.296;2023-02-23T13:50:15;34.23;;;23.90;;
4692;SDS011;11710;48.024;16.296;2023-02-23T13:52:44;34.43;;;23.40;;
4692;SDS011;11710;48.024;16.296;2023-02-23T13:58:02;30.13;;;22.33;;
4692;SDS011;11710;48.024;16.296;2023-02-23T14:00:30;33.50;;;23.30;;
4692;SDS011;11710;48.024;16.296;2023-02-23T14:03:02;33.30;;;23.13;;
4692;SDS011;11710;48.024;16.296;2023-02-23T14:05:36;34.43;;;24.43;;
4692;SDS011;11710;48.024;16.296;2023-02-23T14:08:15;32.13;;;22.00;;
4692;SDS011;11710;48.024;16.296;2023-02-23T14:10:46;30.97;;;22.53;;
4692;SDS011;11710;48.024;16.296;2023-02-23T14:13:27;28.80;;;21.90;;
4692;SDS011;11710;48.024;16.296;2023-02-23T14:16:09;28.83;;;22.30;;
4692;SDS011;11710;48.024;16.296;2023-02-23T14:18:52;33.33;;;22.57;;
4692;SDS011;11710;48.024;16.296;2023-02-23T14:21:23;31.17;;;22.77;;
4692;SDS011;11710;48.024;16.296;2023-02-23T14:23:53;28.30;;;22.10;;
4692;SDS011;11710;48.024;16.296;2023-02-23T14:26:35;36.10;;;22.93;;
4692;SDS011;11710;48.024;16.296;2023-02-23T14:29:23;29.63;;;21.33;;
4692;SDS011;11710;48.024;16.296;2023-02-23T14:31:56;31.93;;;22.07;;
4692;SDS011;11710;48.024;16.296;2023-02-23T14:34:30;32.23;;;22.70;;
4692;SDS011;11710;48.024;16.296;2023-02-23T14:39:56;37.10;;;22.70;;
4692;SDS011;11710;48.024;16.296;2023-02-23T14:42:27;34.23;;;23.17;;
4692;SDS011;11710;48.024;16.296;2023-02-23T14:44:57;29.93;;;21.50;;
4692;SDS011;11710;48.024;16.296;2023-02-23T14:47:28;33.07;;;21.83;;
4692;SDS011;11710;48.024;16.296;2023-02-23T14:49:58;33.03;;;21.77;;
4692;SDS011;11710;48.024;16.296;2023-02-23T14:52:27;29.07;;;21.40;;
4692;SDS011;11710;48.024;16.296;2023-02-23T14:55:05;29.70;;;21.53;;
4692;SDS011;11710;48.024;16.296;2023-02-23T14:57:34;29.87;;;21.67;;
4692;SDS011;11710;48.024;16.296;2023-02-23T15:00:08;34.30;;;23.10;;
4692;SDS011;11710;48.024;16.296;2023-02-23T15:02:38;27.87;;;21.20;;
4692;SDS011;11710;48.024;16.296;2023-02-23T15:05:16;39.53;;;22.23;;
4692;SDS011;11710;48.024;16.296;2023-02-23T15:07:43;37.67;;;22.53;;
4692;SDS011;11710;48.024;16.296;2023-02-23T15:10:16;34.13;;;25.02;;
4692;SDS011;11710;48.024;16.296;2023-02-23T15:12:44;33.30;;;24.42;;
4692;SDS011;11710;48.024;16.296;2023-02-23T15:15:14;35.25;;;24.52;;
4692;SDS011;11710;48.024;16.296;2023-02-23T15:17:43;37.20;;;24.65;;
4692;SDS011;11710;48.024;16.296;2023-02-23T15:20:13;31.87;;;24.57;;
4692;SDS011;11710;48.024;16.296;2023-02-23T15:22:43;37.60;;;25.40;;
4692;SDS011;11710;48.024;16.296;2023-02-23T15:25:14;33.83;;;23.87;;
4692;SDS011;11710;48.024;16.296;2023-02-23T15:27:42;32.67;;;23.33;;
4692;SDS011;11710;48.024;16.296;2023-02-23T15:30:18;31.17;;;22.23;;
4692;SDS011;11710;48.024;16.296;2023-02-23T15:32:46;33.45;;;21.20;;
4692;SDS011;11710;48.024;16.296;2023-02-23T15:35:13;32.55;;;21.92;;
4692;SDS011;11710;48.024;16.296;2023-02-23T15:37:43;34.03;;;22.40;;
4692;SDS011;11710;48.024;16.296;2023-02-23T15:40:12;34.25;;;21.90;;
4692;SDS011;11710;48.024;16.296;2023-02-23T15:42:42;34.47;;;21.83;;
4692;SDS011;11710;48.024;16.296;2023-02-23T15:45:13;35.65;;;21.80;;
4692;SDS011;11710;48.024;16.296;2023-02-23T15:47:44;30.95;;;22.30;;
4692;SDS011;11710;48.024;16.296;2023-02-23T15:50:14;31.70;;;21.83;;
4692;SDS011;11710;48.024;16.296;2023-02-23T15:52:45;33.50;;;20.83;;
4692;SDS011;11710;48.024;16.296;2023-02-23T15:55:16;29.77;;;21.58;;
4692;SDS011;11710;48.024;16.296;2023-02-23T15:57:46;38.42;;;23.42;;
4692;SDS011;11710;48.024;16.296;2023-02-23T16:00:15;55.75;;;32.78;;
4692;SDS011;11710;48.024;16.296;2023-02-23T16:02:57;35.88;;;24.42;;
4692;SDS011;11710;48.024;16.296;2023-02-23T16:05:25;56.33;;;31.88;;
4692;SDS011;11710;48.024;16.296;2023-02-23T16:08:04;101.68;;;51.10;;
4692;SDS011;11710;48.024;16.296;2023-02-23T16:10:39;37.67;;;23.35;;
4692;SDS011;11710;48.024;16.296;2023-02-23T16:13:09;40.45;;;23.67;;
4692;SDS011;11710;48.024;16.296;2023-02-23T16:15:38;32.10;;;20.50;;
4692;SDS011;11710;48.024;16.296;2023-02-23T16:18:09;32.05;;;20.25;;
4692;SDS011;11710;48.024;16.296;2023-02-23T16:20:44;32.90;;;21.33;;
4692;SDS011;11710;48.024;16.296;2023-02-23T16:23:18;35.13;;;20.50;;
4692;SDS011;11710;48.024;16.296;2023-02-23T16:25:51;33.10;;;20.58;;
4692;SDS011;11710;48.024;16.296;2023-02-23T16:28:19;31.48;;;20.95;;
4692;SDS011;11710;48.024;16.296;2023-02-23T16:30:49;30.95;;;20.00;;
4692;SDS011;11710;48.024;16.296;2023-02-23T16:33:19;30.73;;;20.77;;
4692;SDS011;11710;48.024;16.296;2023-02-23T16:35:48;33.38;;;20.17;;
4692;SDS011;11710;48.024;16.296;2023-02-23T16:38:21;31.92;;;20.30;;
4692;SDS011;11710;48.024;16.296;2023-02-23T16:40:49;31.10;;;20.77;;
4692;SDS011;11710;48.024;16.296;2023-02-23T16:43:17;33.22;;;20.85;;
4692;SDS011;11710;48.024;16.296;2023-02-23T16:45:44;32.90;;;20.70;;
4692;SDS011;11710;48.024;16.296;2023-02-23T16:48:12;30.00;;;21.20;;
4692;SDS011;11710;48.024;16.296;2023-02-23T16:50:40;33.53;;;21.10;;
4692;SDS011;11710;48.024;16.296;2023-02-23T16:53:10;32.88;;;20.75;;
4692;SDS011;11710;48.024;16.296;2023-02-23T16:55:47;35.47;;;20.42;;
4692;SDS011;11710;48.024;16.296;2023-02-23T16:58:17;30.30;;;20.75;;
4692;SDS011;11710;48.024;16.296;2023-02-23T17:00:45;40.92;;;21.27;;
4692;SDS011;11710;48.024;16.296;2023-02-23T17:03:15;32.45;;;21.33;;
4692;SDS011;11710;48.024;16.296;2023-02-23T17:05:44;35.08;;;21.90;;
4692;SDS011;11710;48.024;16.296;2023-02-23T17:08:12;32.78;;;21.38;;
4692;SDS011;11710;48.024;16.296;2023-02-23T17:10:39;34.17;;;20.15;;
4692;SDS011;11710;48.024;16.296;2023-02-23T17:13:11;34.35;;;20.83;;
4692;SDS011;11710;48.024;16.296;2023-02-23T17:15:41;31.17;;;19.75;;
4692;SDS011;11710;48.024;16.296;2023-02-23T17:18:14;28.45;;;19.23;;
4692;SDS011;11710;48.024;16.296;2023-02-23T17:20:42;30.85;;;19.45;;
4692;SDS011;11710;48.024;16.296;2023-02-23T17:23:09;34.78;;;20.42;;
4692;SDS011;11710;48.024;16.296;2023-02-23T17:25:37;31.20;;;19.23;;
4692;SDS011;11710;48.024;16.296;2023-02-23T17:28:04;27.65;;;18.13;;
4692;SDS011;11710;48.024;16.296;2023-02-23T17:30:33;28.77;;;19.95;;
4692;SDS011;11710;48.024;16.296;2023-02-23T17:33:02;28.95;;;19.27;;
4692;SDS011;11710;48.024;16.296;2023-02-23T17:35:29;31.67;;;19.42;;
4692;SDS011;11710;48.024;16.296;2023-02-23T17:37:57;30.25;;;20.35;;
4692;SDS011;11710;48.024;16.296;2023-02-23T17:40:25;33.63;;;19.30;;
4692;SDS011;11710;48.024;16.296;2023-02-23T17:42:54;31.20;;;19.75;;
4692;SDS011;11710;48.024;16.296;2023-02-23T17:45:22;32.97;;;20.42;;
4692;SDS011;11710;48.024;16.296;2023-02-23T17:47:51;29.92;;;19.88;;
4692;SDS011;11710;48.024;16.296;2023-02-23T17:50:18;30.55;;;19.80;;
4692;SDS011;11710;48.024;16.296;2023-02-23T17:52:53;33.17;;;21.10;;
4692;SDS011;11710;48.024;16.296;2023-02-23T17:55:29;32.53;;;20.83;;
4692;SDS011;11710;48.024;16.296;2023-02-23T17:58:23;32.58;;;19.25;;
4692;SDS011;11710;48.024;16.296;2023-02-23T18:00:59;30.90;;;20.00;;
4692;SDS011;11710;48.024;16.296;2023-02-23T18:03:30;33.00;;;20.00;;
4692;SDS011;11710;48.024;16.296;2023-02-23T18:05:59;31.92;;;19.70;;
4692;SDS011;11710;48.024;16.296;2023-02-23T18:08:37;34.30;;;19.92;;
4692;SDS011;11710;48.024;16.296;2023-02-23T18:11:10;30.20;;;18.58;;
4692;SDS011;11710;48.024;16.296;2023-02-23T18:13:37;32.58;;;20.45;;
4692;SDS011;11710;48.024;16.296;2023-02-23T18:16:06;31.95;;;19.95;;
4692;SDS011;11710;48.024;16.296;2023-02-23T18:18:36;34.85;;;20.08;;
4692;SDS011;11710;48.024;16.296;2023-02-23T18:21:08;38.17;;;20.25;;
4692;SDS011;11710;48.024;16.296;2023-02-23T18:23:35;33.92;;;20.10;;
4692;SDS011;11710;48.024;16.296;2023-02-23T18:26:03;36.00;;;20.02;;
4692;SDS011;11710;48.024;16.296;2023-02-23T18:28:31;31.95;;;20.40;;
4692;SDS011;11710;48.024;16.296;2023-02-23T18:30:59;33.70;;;20.67;;
4692;SDS011;11710;48.024;16.296;2023-02-23T18:33:27;33.58;;;20.27;;
4692;SDS011;11710;48.024;16.296;2023-02-23T18:35:57;34.75;;;20.00;;
4692;SDS011;11710;48.024;16.296;2023-02-23T18:38:25;32.00;;;19.42;;
4692;SDS011;11710;48.024;16.296;2023-02-23T18:40:52;30.23;;;19.05;;
4692;SDS011;11710;48.024;16.296;2023-02-23T18:43:20;35.45;;;21.42;;
4692;SDS011;11710;48.024;16.296;2023-02-23T18:45:47;31.67;;;19.52;;
4692;SDS011;11710;48.024;16.296;2023-02-23T18:48:15;33.30;;;19.80;;
4692;SDS011;11710;48.024;16.296;2023-02-23T18:50:42;32.30;;;20.75;;
4692;SDS011;11710;48.024;16.296;2023-02-23T18:53:11;36.22;;;21.27;;
4692;SDS011;11710;48.024;16.296;2023-02-23T18:55:38;34.15;;;20.80;;
4692;SDS011;11710;48.024;16.296;2023-02-23T18:58:06;32.38;;;20.77;;
4692;SDS011;11710;48.024;16.296;2023-02-23T19:00:33;35.08;;;21.38;;
4692;SDS011;11710;48.024;16.296;2023-02-23T19:03:04;38.45;;;20.98;;
4692;SDS011;11710;48.024;16.296;2023-02-23T19:05:32;36.05;;;23.98;;
4692;SDS011;11710;48.024;16.296;2023-02-23T19:08:01;37.08;;;23.75;;
4692;SDS011;11710;48.024;16.296;2023-02-23T19:10:33;41.50;;;27.00;;
4692;SDS011;11710;48.024;16.296;2023-02-23T19:13:01;44.88;;;28.05;;
4692;SDS011;11710;48.024;16.296;2023-02-23T19:15:32;43.47;;;28.00;;
4692;SDS011;11710;48.024;16.296;2023-02-23T19:18:00;38.35;;;26.13;;
4692;SDS011;11710;48.024;16.296;2023-02-23T19:20:27;47.55;;;29.77;;
4692;SDS011;11710;48.024;16.296;2023-02-23T19:22:56;44.97;;;27.17;;
4692;SDS011;11710;48.024;16.296;2023-02-23T19:25:24;43.63;;;26.75;;
4692;SDS011;11710;48.024;16.296;2023-02-23T19:27:53;42.78;;;24.67;;
4692;SDS011;11710;48.024;16.296;2023-02-23T19:30:20;43.30;;;24.17;;
4692;SDS011;11710;48.024;16.296;2023-02-23T19:32:48;41.70;;;23.23;;
4692;SDS011;11710;48.024;16.296;2023-02-23T19:35:15;31.42;;;22.63;;
4692;SDS011;11710;48.024;16.296;2023-02-23T19:37:44;39.97;;;22.65;;
4692;SDS011;11710;48.024;16.296;2023-02-23T19:40:13;40.58;;;22.90;;
4692;SDS011;11710;48.024;16.296;2023-02-23T19:42:45;36.95;;;24.38;;
4692;SDS011;11710;48.024;16.296;2023-02-23T19:45:15;37.35;;;23.25;;
4692;SDS011;11710;48.024;16.296;2023-02-23T19:47:43;35.90;;;23.25;;
4692;SDS011;11710;48.024;16.296;2023-02-23T19:50:11;39.75;;;22.75;;
4692;SDS011;11710;48.024;16.296;2023-02-23T19:52:42;37.17;;;22.67;;
4692;SDS011;11710;48.024;16.296;2023-02-23T19:55:10;37.92;;;23.85;;
4692;SDS011;11710;48.024;16.296;2023-02-23T19:57:38;39.55;;;23.98;;
4692;SDS011;11710;48.024;16.296;2023-02-23T20:00:06;40.65;;;24.60;;
4692;SDS011;11710;48.024;16.296;2023-02-23T20:02:38;40.20;;;23.10;;
4692;SDS011;11710;48.024;16.296;2023-02-23T20:05:09;37.58;;;23.83;;
4692;SDS011;11710;48.024;16.296;2023-02-23T20:07:40;41.55;;;22.95;;
4692;SDS011;11710;48.024;16.296;2023-02-23T20:10:09;41.78;;;22.60;;
4692;SDS011;11710;48.024;16.296;2023-02-23T20:12:40;35.22;;;22.02;;
4692;SDS011;11710;48.024;16.296;2023-02-23T20:15:08;41.45;;;23.85;;
4692;SDS011;11710;48.024;16.296;2023-02-23T20:17:40;34.42;;;21.55;;
4692;SDS011;11710;48.024;16.296;2023-02-23T20:20:08;39.88;;;23.17;;
4692;SDS011;11710;48.024;16.296;2023-02-23T20:22:36;41.05;;;23.52;;
4692;SDS011;11710;48.024;16.296;2023-02-23T20:25:06;37.70;;;23.23;;
4692;SDS011;11710;48.024;16.296;2023-02-23T20:27:36;38.10;;;23.10;;
4692;SDS011;11710;48.024;16.296;2023-02-23T20:30:07;32.17;;;21.77;;
